sensor_id;sensor_type;location;lat;lon;timestamp;pressure;altitude;pressure_sealevel;temperature;humidity
8627;BME280;4351;51.422;6.794;2023-03-16T00:00:54;101949.78;;;3.77;100.00
8627;BME280;4351;51.422;6.794;2023-03-16T00:03:22;101938.19;;;3.79;100.00
8627;BME280;4351;51.422;6.794;2023-03-16T00:05:52;101948.75;;;3.87;100.00
8627;BME280;4351;51.422;6.794;2023-03-16T00:08:20;101939.06;;;3.78;100.00
8627;BME280;4351;51.422;6.794;2023-03-16T00:10:49;101924.22;;;3.54;100.00
8627;BME280;4351;51.422;6.794;2023-03-16T00:13:21;101925.78;;;3.74;100.00
8627;BME280;4351;51.422;6.794;2023-03-16T00:15:51;101929.38;;;3.70;100.00
8627;BME280;4351;51.422;6.794;2023-03-16T00:18:21;101939.22;;;3.66;100.00
8627;BME280;4351;51.422;6.794;2023-03-16T00:20:53;101936.44;;;3.77;100.00
8627;BME280;4351;51.422;6.794;2023-03-16T00:23:22;101931.16;;;3.71;100.00
8627;BME280;4351;51.422;6.794;2023-03-16T00:25:54;101923.06;;;3.75;100.00
8627;BME280;4351;51.422;6.794;2023-03-16T00:28:24;101915.94;;;3.77;100.00
8627;BME280;4351;51.422;6.794;2023-03-16T00:30:52;101912.31;;;3.83;100.00
8627;BME280;4351;51.422;6.794;2023-03-16T00:33:24;101904.31;;;3.80;100.00
8627;BME280;4351;51.422;6.794;2023-03-16T00:35:52;101903.59;;;3.70;100.00
8627;BME280;4351;51.422;6.794;2023-03-16T00:38:28;101902.50;;;3.85;100.00
8627;BME280;4351;51.422;6.794;2023-03-16T00:40:59;101898.59;;;4.10;100.00
8627;BME280;4351;51.422;6.794;2023-03-16T00:43:29;101878.53;;;3.77;100.00
8627;BME280;4351;51.422;6.794;2023-03-16T00:45:58;101880.44;;;3.69;100.00
8627;BME280;4351;51.422;6.794;2023-03-16T00:48:32;101876.69;;;3.86;100.00
8627;BME280;4351;51.422;6.794;2023-03-16T00:51:01;101876.72;;;3.83;100.00
8627;BME280;4351;51.422;6.794;2023-03-16T00:53:29;101883.66;;;3.96;100.00
8627;BME280;4351;51.422;6.794;2023-03-16T00:56:00;101874.00;;;3.84;100.00
8627;BME280;4351;51.422;6.794;2023-03-16T00:58:30;101881.75;;;4.05;100.00
8627;BME280;4351;51.422;6.794;2023-03-16T01:01:01;101881.75;;;4.05;100.00
8627;BME280;4351;51.422;6.794;2023-03-16T01:03:29;101878.31;;;3.96;100.00
8627;BME280;4351;51.422;6.794;2023-03-16T01:05:57;101869.88;;;4.24;100.00
8627;BME280;4351;51.422;6.794;2023-03-16T01:08:26;101851.53;;;3.99;100.00
8627;BME280;4351;51.422;6.794;2023-03-16T01:10:54;101843.53;;;3.99;100.00
8627;BME280;4351;51.422;6.794;2023-03-16T01:13:24;101846.22;;;3.98;100.00
8627;BME280;4351;51.422;6.794;2023-03-16T01:15:52;101851.53;;;4.01;100.00
8627;BME280;4351;51.422;6.794;2023-03-16T01:18:20;101834.50;;;4.08;100.00
8627;BME280;4351;51.422;6.794;2023-03-16T01:20:48;101836.31;;;4.08;100.00
8627;BME280;4351;51.422;6.794;2023-03-16T01:23:17;101825.56;;;4.11;100.00
8627;BME280;4351;51.422;6.794;2023-03-16T01:25:45;101822.84;;;4.12;100.00
8627;BME280;4351;51.422;6.794;2023-03-16T01:28:19;101813.25;;;4.00;100.00
8627;BME280;4351;51.422;6.794;2023-03-16T01:30:53;101810.63;;;3.99;100.00
8627;BME280;4351;51.422;6.794;2023-03-16T01:33:25;101795.81;;;4.33;100.00
8627;BME280;4351;51.422;6.794;2023-03-16T01:35:55;101791.63;;;4.18;100.00
8627;BME280;4351;51.422;6.794;2023-03-16T01:38:26;101787.38;;;4.06;100.00
8627;BME280;4351;51.422;6.794;2023-03-16T01:40:54;101781.66;;;4.28;100.00
8627;BME280;4351;51.422;6.794;2023-03-16T01:43:24;101763.97;;;4.20;100.00
8627;BME280;4351;51.422;6.794;2023-03-16T01:46:14;101765.81;;;4.15;100.00
8627;BME280;4351;51.422;6.794;2023-03-16T01:48:50;101749.97;;;4.06;100.00
8627;BME280;4351;51.422;6.794;2023-03-16T01:51:24;101754.38;;;4.08;100.00
8627;BME280;4351;51.422;6.794;2023-03-16T01:53:59;101756.84;;;4.19;100.00
8627;BME280;4351;51.422;6.794;2023-03-16T01:56:33;101741.47;;;4.32;100.00
8627;BME280;4351;51.422;6.794;2023-03-16T01:59:07;101739.97;;;4.17;100.00
8627;BME280;4351;51.422;6.794;2023-03-16T02:01:38;101730.72;;;4.39;100.00
8627;BME280;4351;51.422;6.794;2023-03-16T02:04:13;101730.25;;;4.13;100.00
8627;BME280;4351;51.422;6.794;2023-03-16T02:06:44;101725.66;;;4.21;100.00
8627;BME280;4351;51.422;6.794;2023-03-16T02:09:12;101725.44;;;4.32;100.00
8627;BME280;4351;51.422;6.794;2023-03-16T02:11:40;101705.19;;;4.20;100.00
8627;BME280;4351;51.422;6.794;2023-03-16T02:14:11;101695.31;;;4.24;100.00
8627;BME280;4351;51.422;6.794;2023-03-16T02:16:42;101706.84;;;4.28;100.00
8627;BME280;4351;51.422;6.794;2023-03-16T02:19:14;101705.03;;;4.30;100.00
8627;BME280;4351;51.422;6.794;2023-03-16T02:21:49;101694.34;;;4.28;100.00
8627;BME280;4351;51.422;6.794;2023-03-16T02:24:21;101693.75;;;4.13;100.00
8627;BME280;4351;51.422;6.794;2023-03-16T02:26:51;101692.88;;;4.11;100.00
8627;BME280;4351;51.422;6.794;2023-03-16T02:32:05;101692.56;;;4.29;100.00
8627;BME280;4351;51.422;6.794;2023-03-16T02:34:33;101682.69;;;4.34;100.00
8627;BME280;4351;51.422;6.794;2023-03-16T02:37:02;101675.00;;;4.15;100.00
8627;BME280;4351;51.422;6.794;2023-03-16T02:39:30;101674.69;;;4.34;100.00
8627;BME280;4351;51.422;6.794;2023-03-16T02:42:00;101672.22;;;4.21;100.00
8627;BME280;4351;51.422;6.794;2023-03-16T02:44:31;101670.50;;;4.17;100.00
8627;BME280;4351;51.422;6.794;2023-03-16T02:47:08;101664.78;;;4.37;100.00
8627;BME280;4351;51.422;6.794;2023-03-16T02:49:39;101656.19;;;4.23;100.00
8627;BME280;4351;51.422;6.794;2023-03-16T02:52:08;101648.81;;;4.36;100.00
8627;BME280;4351;51.422;6.794;2023-03-16T02:54:36;101646.44;;;4.20;100.00
8627;BME280;4351;51.422;6.794;2023-03-16T02:57:04;101650.72;;;4.29;100.00
8627;BME280;4351;51.422;6.794;2023-03-16T02:59:33;101652.94;;;4.05;100.00
8627;BME280;4351;51.422;6.794;2023-03-16T03:02:01;101643.03;;;4.10;100.00
8627;BME280;4351;51.422;6.794;2023-03-16T03:04:30;101639.34;;;4.18;100.00
8627;BME280;4351;51.422;6.794;2023-03-16T03:06:58;101642.06;;;4.16;100.00
8627;BME280;4351;51.422;6.794;2023-03-16T03:09:35;101640.31;;;4.13;100.00
8627;BME280;4351;51.422;6.794;2023-03-16T03:12:03;101648.41;;;4.09;100.00
8627;BME280;4351;51.422;6.794;2023-03-16T03:14:32;101635.06;;;4.09;100.00
8627;BME280;4351;51.422;6.794;2023-03-16T03:17:03;101630.56;;;4.11;100.00
8627;BME280;4351;51.422;6.794;2023-03-16T03:19:34;101627.91;;;4.11;100.00
8627;BME280;4351;51.422;6.794;2023-03-16T03:22:03;101628.53;;;4.25;100.00
8627;BME280;4351;51.422;6.794;2023-03-16T03:24:32;101619.13;;;4.06;100.00
8627;BME280;4351;51.422;6.794;2023-03-16T03:27:01;101624.25;;;4.15;100.00
8627;BME280;4351;51.422;6.794;2023-03-16T03:29:33;101626.81;;;4.21;100.00
8627;BME280;4351;51.422;6.794;2023-03-16T03:32:02;101625.09;;;4.17;100.00
8627;BME280;4351;51.422;6.794;2023-03-16T03:34:31;101615.22;;;4.22;100.00
8627;BME280;4351;51.422;6.794;2023-03-16T03:37:00;101615.47;;;4.08;100.00
8627;BME280;4351;51.422;6.794;2023-03-16T03:39:28;101615.09;;;4.29;100.00
8627;BME280;4351;51.422;6.794;2023-03-16T03:41:56;101604.50;;;4.24;100.00
8627;BME280;4351;51.422;6.794;2023-03-16T03:44:25;101600.81;;;4.31;100.00
8627;BME280;4351;51.422;6.794;2023-03-16T03:46:53;101599.00;;;4.32;100.00
8627;BME280;4351;51.422;6.794;2023-03-16T03:49:25;101599.16;;;4.25;100.00
8627;BME280;4351;51.422;6.794;2023-03-16T03:51:53;101604.38;;;4.32;100.00
8627;BME280;4351;51.422;6.794;2023-03-16T03:54:25;101609.06;;;4.19;100.00
8627;BME280;4351;51.422;6.794;2023-03-16T03:56:59;101605.16;;;4.35;100.00
8627;BME280;4351;51.422;6.794;2023-03-16T03:59:27;101599.91;;;4.31;100.00
8627;BME280;4351;51.422;6.794;2023-03-16T04:02:14;101601.81;;;4.25;100.00
8627;BME280;4351;51.422;6.794;2023-03-16T04:04:49;101600.88;;;4.27;100.00
8627;BME280;4351;51.422;6.794;2023-03-16T04:07:17;101601.78;;;4.27;100.00
8627;BME280;4351;51.422;6.794;2023-03-16T04:09:47;101588.56;;;4.21;100.00
8627;BME280;4351;51.422;6.794;2023-03-16T04:12:26;101593.00;;;4.20;100.00
8627;BME280;4351;51.422;6.794;2023-03-16T04:14:55;101590.19;;;4.27;100.00
8627;BME280;4351;51.422;6.794;2023-03-16T04:17:25;101591.91;;;4.31;100.00
8627;BME280;4351;51.422;6.794;2023-03-16T04:19:56;101583.84;;;4.34;100.00
8627;BME280;4351;51.422;6.794;2023-03-16T04:22:24;101577.09;;;4.14;100.00
8627;BME280;4351;51.422;6.794;2023-03-16T04:24:53;101581.94;;;4.39;100.00
8627;BME280;4351;51.422;6.794;2023-03-16T04:27:23;101580.09;;;4.41;100.00
8627;BME280;4351;51.422;6.794;2023-03-16T04:29:51;101578.66;;;4.24;100.00
8627;BME280;4351;51.422;6.794;2023-03-16T04:32:21;101569.94;;;4.16;100.00
8627;BME280;4351;51.422;6.794;2023-03-16T04:34:52;101564.66;;;4.13;100.00
8627;BME280;4351;51.422;6.794;2023-03-16T04:37:29;101564.34;;;4.29;100.00
8627;BME280;4351;51.422;6.794;2023-03-16T04:39:58;101563.53;;;4.25;100.00
8627;BME280;4351;51.422;6.794;2023-03-16T04:42:26;101564.44;;;4.24;100.00
8627;BME280;4351;51.422;6.794;2023-03-16T04:44:53;101552.63;;;4.34;100.00
8627;BME280;4351;51.422;6.794;2023-03-16T04:47:22;101551.06;;;4.25;100.00
8627;BME280;4351;51.422;6.794;2023-03-16T04:49:50;101554.72;;;4.20;100.00
8627;BME280;4351;51.422;6.794;2023-03-16T04:52:18;101557.56;;;4.12;100.00
8627;BME280;4351;51.422;6.794;2023-03-16T04:54:46;101558.19;;;4.25;100.00
8627;BME280;4351;51.422;6.794;2023-03-16T04:57:16;101564.47;;;4.22;100.00
8627;BME280;4351;51.422;6.794;2023-03-16T04:59:49;101561.84;;;4.19;100.00
8627;BME280;4351;51.422;6.794;2023-03-16T05:02:23;101557.25;;;4.28;100.00
8627;BME280;4351;51.422;6.794;2023-03-16T05:04:53;101553.72;;;4.25;100.00
8627;BME280;4351;51.422;6.794;2023-03-16T05:07:21;101555.53;;;4.23;100.00
8627;BME280;4351;51.422;6.794;2023-03-16T05:09:52;101550.13;;;4.27;100.00
8627;BME280;4351;51.422;6.794;2023-03-16T05:12:22;101552.00;;;4.21;100.00
8627;BME280;4351;51.422;6.794;2023-03-16T05:14:54;101559.91;;;4.28;100.00
8627;BME280;4351;51.422;6.794;2023-03-16T05:17:35;101555.75;;;4.14;100.00
8627;BME280;4351;51.422;6.794;2023-03-16T05:20:04;101548.56;;;4.16;100.00
8627;BME280;4351;51.422;6.794;2023-03-16T05:22:39;101549.53;;;4.12;100.00
8627;BME280;4351;51.422;6.794;2023-03-16T05:25:19;101546.09;;;4.07;100.00
8627;BME280;4351;51.422;6.794;2023-03-16T05:27:52;101545.81;;;4.19;100.00
8627;BME280;4351;51.422;6.794;2023-03-16T05:30:29;101550.56;;;4.05;100.00
8627;BME280;4351;51.422;6.794;2023-03-16T05:33:01;101554.03;;;4.10;100.00
8627;BME280;4351;51.422;6.794;2023-03-16T05:35:30;101542.38;;;4.14;100.00
8627;BME280;4351;51.422;6.794;2023-03-16T05:38:03;101544.56;;;4.37;100.00
8627;BME280;4351;51.422;6.794;2023-03-16T05:40:34;101540.47;;;4.19;100.00
8627;BME280;4351;51.422;6.794;2023-03-16T05:43:40;101545.59;;;4.30;100.00
8627;BME280;4351;51.422;6.794;2023-03-16T05:46:08;101547.41;;;4.28;100.00
8627;BME280;4351;51.422;6.794;2023-03-16T05:48:37;101555.16;;;4.42;100.00
8627;BME280;4351;51.422;6.794;2023-03-16T05:51:06;101556.75;;;4.51;100.00
8627;BME280;4351;51.422;6.794;2023-03-16T05:53:35;101559.69;;;4.39;100.00
8627;BME280;4351;51.422;6.794;2023-03-16T05:56:10;101551.69;;;4.37;100.00
8627;BME280;4351;51.422;6.794;2023-03-16T05:58:42;101544.84;;;4.23;100.00
8627;BME280;4351;51.422;6.794;2023-03-16T06:01:10;101543.56;;;4.42;100.00
8627;BME280;4351;51.422;6.794;2023-03-16T06:03:41;101555.72;;;4.58;100.00
8627;BME280;4351;51.422;6.794;2023-03-16T06:06:14;101546.47;;;4.31;100.00
8627;BME280;4351;51.422;6.794;2023-03-16T06:08:52;101550.75;;;4.40;100.00
8627;BME280;4351;51.422;6.794;2023-03-16T06:11:22;101550.69;;;4.43;100.00
8627;BME280;4351;51.422;6.794;2023-03-16T06:13:52;101559.56;;;4.45;100.00
8627;BME280;4351;51.422;6.794;2023-03-16T06:16:23;101557.69;;;4.48;100.00
8627;BME280;4351;51.422;6.794;2023-03-16T06:18:51;101555.47;;;4.69;100.00
8627;BME280;4351;51.422;6.794;2023-03-16T06:21:19;101561.28;;;4.47;100.00
8627;BME280;4351;51.422;6.794;2023-03-16T06:23:49;101561.28;;;4.47;100.00
8627;BME280;4351;51.422;6.794;2023-03-16T06:26:19;101563.13;;;4.44;100.00
8627;BME280;4351;51.422;6.794;2023-03-16T06:28:48;101563.97;;;4.47;100.00
8627;BME280;4351;51.422;6.794;2023-03-16T06:31:17;101550.28;;;4.62;100.00
8627;BME280;4351;51.422;6.794;2023-03-16T06:33:45;101554.13;;;4.50;100.00
8627;BME280;4351;51.422;6.794;2023-03-16T06:36:13;101551.97;;;4.66;100.00
8627;BME280;4351;51.422;6.794;2023-03-16T06:38:45;101552.66;;;4.74;100.00
8627;BME280;4351;51.422;6.794;2023-03-16T06:41:24;101544.81;;;4.66;100.00
8627;BME280;4351;51.422;6.794;2023-03-16T06:43:52;101558.06;;;4.72;100.00
8627;BME280;4351;51.422;6.794;2023-03-16T06:46:21;101556.00;;;4.84;100.00
8627;BME280;4351;51.422;6.794;2023-03-16T06:48:49;101551.06;;;4.67;100.00
8627;BME280;4351;51.422;6.794;2023-03-16T06:51:18;101546.06;;;4.89;100.00
8627;BME280;4351;51.422;6.794;2023-03-16T06:53:48;101545.97;;;4.94;100.00
8627;BME280;4351;51.422;6.794;2023-03-16T06:56:16;101544.19;;;4.94;100.00
8627;BME280;4351;51.422;6.794;2023-03-16T06:58:45;101548.38;;;5.05;100.00
8627;BME280;4351;51.422;6.794;2023-03-16T07:01:14;101547.38;;;5.09;100.00
8627;BME280;4351;51.422;6.794;2023-03-16T07:03:43;101545.59;;;5.10;100.00
8627;BME280;4351;51.422;6.794;2023-03-16T07:06:20;101548.47;;;5.02;100.00
8627;BME280;4351;51.422;6.794;2023-03-16T07:08:48;101539.56;;;5.01;100.00
8627;BME280;4351;51.422;6.794;2023-03-16T07:11:18;101554.25;;;5.21;100.00
8627;BME280;4351;51.422;6.794;2023-03-16T07:13:46;101544.16;;;5.31;100.00
8627;BME280;4351;51.422;6.794;2023-03-16T07:16:16;101544.25;;;5.28;100.00
8627;BME280;4351;51.422;6.794;2023-03-16T07:18:45;101541.38;;;5.37;100.00
8627;BME280;4351;51.422;6.794;2023-03-16T07:21:15;101550.53;;;5.27;100.00
8627;BME280;4351;51.422;6.794;2023-03-16T07:23:44;101549.13;;;5.47;100.00
8627;BME280;4351;51.422;6.794;2023-03-16T07:26:17;101550.06;;;5.46;100.00
8627;BME280;4351;51.422;6.794;2023-03-16T07:28:51;101551.63;;;5.55;100.00
8627;BME280;4351;51.422;6.794;2023-03-16T07:31:23;101556.00;;;5.57;100.00
8627;BME280;4351;51.422;6.794;2023-03-16T07:33:55;101553.19;;;5.62;100.00
8627;BME280;4351;51.422;6.794;2023-03-16T07:36:32;101557.00;;;5.53;100.00
8627;BME280;4351;51.422;6.794;2023-03-16T07:39:01;101554.13;;;5.61;100.00
8627;BME280;4351;51.422;6.794;2023-03-16T07:41:29;101558.13;;;5.44;100.00
8627;BME280;4351;51.422;6.794;2023-03-16T07:44:13;101552.47;;;5.55;100.00
8627;BME280;4351;51.422;6.794;2023-03-16T07:46:45;101555.31;;;5.49;100.00
8627;BME280;4351;51.422;6.794;2023-03-16T07:49:16;101555.84;;;5.63;100.00
8627;BME280;4351;51.422;6.794;2023-03-16T07:51:46;101556.44;;;5.40;100.00
8627;BME280;4351;51.422;6.794;2023-03-16T07:54:17;101552.09;;;5.36;100.00
8627;BME280;4351;51.422;6.794;2023-03-16T07:56:46;101550.28;;;5.36;100.00
8627;BME280;4351;51.422;6.794;2023-03-16T07:59:34;101552.69;;;5.47;100.00
8627;BME280;4351;51.422;6.794;2023-03-16T08:02:02;101550.97;;;5.45;100.00
8627;BME280;4351;51.422;6.794;2023-03-16T08:04:32;101545.56;;;5.48;100.00
8627;BME280;4351;51.422;6.794;2023-03-16T08:07:01;101545.72;;;5.40;100.00
8627;BME280;4351;51.422;6.794;2023-03-16T08:09:44;101544.63;;;5.49;100.00
8627;BME280;4351;51.422;6.794;2023-03-16T08:12:16;101550.78;;;5.52;100.00
8627;BME280;4351;51.422;6.794;2023-03-16T08:14:45;101549.94;;;5.50;100.00
8627;BME280;4351;51.422;6.794;2023-03-16T08:17:20;101548.91;;;5.56;100.00
8627;BME280;4351;51.422;6.794;2023-03-16T08:19:50;101554.41;;;5.50;100.00
8627;BME280;4351;51.422;6.794;2023-03-16T08:22:20;101545.50;;;5.49;100.00
8627;BME280;4351;51.422;6.794;2023-03-16T08:24:48;101548.47;;;5.38;100.00
8627;BME280;4351;51.422;6.794;2023-03-16T08:27:16;101541.78;;;5.55;100.00
8627;BME280;4351;51.422;6.794;2023-03-16T08:29:51;101545.75;;;5.73;100.00
8627;BME280;4351;51.422;6.794;2023-03-16T08:32:22;101536.41;;;5.55;100.00
8627;BME280;4351;51.422;6.794;2023-03-16T08:34:51;101531.94;;;5.56;100.00
8627;BME280;4351;51.422;6.794;2023-03-16T08:37:20;101528.38;;;5.57;100.00
8627;BME280;4351;51.422;6.794;2023-03-16T08:39:51;101524.81;;;5.56;100.00
8627;BME280;4351;51.422;6.794;2023-03-16T08:42:20;101535.47;;;5.58;100.00
8627;BME280;4351;51.422;6.794;2023-03-16T08:44:53;101535.16;;;5.69;100.00
8627;BME280;4351;51.422;6.794;2023-03-16T08:47:22;101542.13;;;5.76;100.00
8627;BME280;4351;51.422;6.794;2023-03-16T08:49:54;101548.06;;;5.88;100.00
8627;BME280;4351;51.422;6.794;2023-03-16T08:52:22;101552.97;;;5.71;100.00
8627;BME280;4351;51.422;6.794;2023-03-16T08:54:51;101551.75;;;5.83;100.00
8627;BME280;4351;51.422;6.794;2023-03-16T08:57:29;101551.66;;;5.86;100.00
8627;BME280;4351;51.422;6.794;2023-03-16T08:59:57;101548.16;;;5.84;100.00
8627;BME280;4351;51.422;6.794;2023-03-16T09:02:25;101550.88;;;5.83;100.00
8627;BME280;4351;51.422;6.794;2023-03-16T09:04:54;101546.13;;;5.93;100.00
8627;BME280;4351;51.422;6.794;2023-03-16T09:07:22;101554.50;;;5.80;100.00
8627;BME280;4351;51.422;6.794;2023-03-16T09:09:50;101552.88;;;6.08;100.00
8627;BME280;4351;51.422;6.794;2023-03-16T09:12:18;101557.94;;;6.19;100.00
8627;BME280;4351;51.422;6.794;2023-03-16T09:14:47;101548.47;;;6.05;100.00
8627;BME280;4351;51.422;6.794;2023-03-16T09:17:15;101555.47;;;6.11;100.00
8627;BME280;4351;51.422;6.794;2023-03-16T09:19:44;101545.34;;;6.21;100.00
8627;BME280;4351;51.422;6.794;2023-03-16T09:22:20;101545.09;;;6.30;100.00
8627;BME280;4351;51.422;6.794;2023-03-16T09:24:48;101547.31;;;6.46;100.00
8627;BME280;4351;51.422;6.794;2023-03-16T09:27:17;101552.13;;;6.35;100.00
8627;BME280;4351;51.422;6.794;2023-03-16T09:29:46;101547.66;;;6.35;100.00
8627;BME280;4351;51.422;6.794;2023-03-16T09:32:14;101537.81;;;6.36;100.00
8627;BME280;4351;51.422;6.794;2023-03-16T09:34:42;101543.13;;;6.37;100.00
8627;BME280;4351;51.422;6.794;2023-03-16T09:37:11;101530.63;;;6.66;100.00
8627;BME280;4351;51.422;6.794;2023-03-16T09:39:40;101527.97;;;6.65;100.00
8627;BME280;4351;51.422;6.794;2023-03-16T09:42:15;101527.50;;;6.81;100.00
8627;BME280;4351;51.422;6.794;2023-03-16T09:44:51;101531.19;;;6.76;100.00
8627;BME280;4351;51.422;6.794;2023-03-16T09:47:25;101528.31;;;6.83;100.00
8627;BME280;4351;51.422;6.794;2023-03-16T09:49:57;101520.88;;;6.91;100.00
8627;BME280;4351;51.422;6.794;2023-03-16T09:52:32;101522.31;;;7.03;100.00
8627;BME280;4351;51.422;6.794;2023-03-16T09:55:06;101510.59;;;7.06;100.00
8627;BME280;4351;51.422;6.794;2023-03-16T09:57:41;101506.28;;;7.00;100.00
8627;BME280;4351;51.422;6.794;2023-03-16T10:00:15;101500.56;;;6.84;100.00
8627;BME280;4351;51.422;6.794;2023-03-16T10:02:59;101500.38;;;6.90;100.00
8627;BME280;4351;51.422;6.794;2023-03-16T10:05:32;101484.59;;;7.08;100.00
8627;BME280;4351;51.422;6.794;2023-03-16T10:08:07;101480.03;;;7.37;100.00
8627;BME280;4351;51.422;6.794;2023-03-16T10:11:08;101460.44;;;7.33;100.00
8627;BME280;4351;51.422;6.794;2023-03-16T10:13:42;101463.28;;;7.29;100.00
8627;BME280;4351;51.422;6.794;2023-03-16T10:16:16;101455.25;;;7.29;100.00
8627;BME280;4351;51.422;6.794;2023-03-16T10:18:47;101460.34;;;7.36;100.00
8627;BME280;4351;51.422;6.794;2023-03-16T10:21:17;101458.94;;;7.52;100.00
8627;BME280;4351;51.422;6.794;2023-03-16T10:23:46;101463.59;;;7.70;100.00
8627;BME280;4351;51.422;6.794;2023-03-16T10:26:22;101458.88;;;7.77;100.00
8627;BME280;4351;51.422;6.794;2023-03-16T10:28:51;101463.84;;;7.64;100.00
8627;BME280;4351;51.422;6.794;2023-03-16T10:31:21;101469.97;;;7.68;100.00
8627;BME280;4351;51.422;6.794;2023-03-16T10:33:53;101469.16;;;7.66;100.00
8627;BME280;4351;51.422;6.794;2023-03-16T10:36:30;101467.00;;;7.76;100.00
8627;BME280;4351;51.422;6.794;2023-03-16T10:39:01;101455.72;;;7.66;100.00
8627;BME280;4351;51.422;6.794;2023-03-16T10:41:32;101450.66;;;7.82;100.00
8627;BME280;4351;51.422;6.794;2023-03-16T10:44:02;101445.06;;;7.88;100.00
8627;BME280;4351;51.422;6.794;2023-03-16T10:46:38;101423.88;;;8.27;100.00
8627;BME280;4351;51.422;6.794;2023-03-16T10:49:20;101414.88;;;8.50;100.00
8627;BME280;4351;51.422;6.794;2023-03-16T10:51:48;101413.66;;;8.59;100.00
8627;BME280;4351;51.422;6.794;2023-03-16T10:54:22;101420.56;;;8.43;100.00
8627;BME280;4351;51.422;6.794;2023-03-16T10:56:54;101410.22;;;8.32;100.00
8627;BME280;4351;51.422;6.794;2023-03-16T10:59:28;101397.56;;;8.58;100.00
8627;BME280;4351;51.422;6.794;2023-03-16T11:01:59;101404.78;;;8.57;100.00
8627;BME280;4351;51.422;6.794;2023-03-16T11:04:32;101397.19;;;8.67;100.00
8627;BME280;4351;51.422;6.794;2023-03-16T11:07:01;101397.50;;;8.82;100.00
8627;BME280;4351;51.422;6.794;2023-03-16T11:09:32;101386.50;;;8.87;100.00
8627;BME280;4351;51.422;6.794;2023-03-16T11:12:14;101390.88;;;8.68;100.00
8627;BME280;4351;51.422;6.794;2023-03-16T11:14:43;101383.81;;;9.28;100.00
8627;BME280;4351;51.422;6.794;2023-03-16T11:17:15;101398.88;;;9.53;100.00
8627;BME280;4351;51.422;6.794;2023-03-16T11:19:49;101384.31;;;9.58;100.00
8627;BME280;4351;51.422;6.794;2023-03-16T11:22:21;101365.03;;;9.67;100.00
8627;BME280;4351;51.422;6.794;2023-03-16T11:24:54;101371.06;;;9.72;100.00
8627;BME280;4351;51.422;6.794;2023-03-16T11:27:31;101359.56;;;9.49;100.00
8627;BME280;4351;51.422;6.794;2023-03-16T11:30:09;101359.66;;;9.67;100.00
8627;BME280;4351;51.422;6.794;2023-03-16T11:32:46;101342.50;;;10.07;100.00
8627;BME280;4351;51.422;6.794;2023-03-16T11:35:18;101335.72;;;10.17;100.00
8627;BME280;4351;51.422;6.794;2023-03-16T11:37:57;101326.25;;;10.08;100.00
8627;BME280;4351;51.422;6.794;2023-03-16T11:40:37;101322.75;;;10.06;100.00
8627;BME280;4351;51.422;6.794;2023-03-16T11:43:26;101313.84;;;10.41;100.00
8627;BME280;4351;51.422;6.794;2023-03-16T11:46:09;101312.25;;;10.37;100.00
8627;BME280;4351;51.422;6.794;2023-03-16T11:48:47;101306.31;;;10.48;100.00
8627;BME280;4351;51.422;6.794;2023-03-16T11:51:28;101301.09;;;10.63;100.00
8627;BME280;4351;51.422;6.794;2023-03-16T11:54:07;101292.53;;;10.90;100.00
8627;BME280;4351;51.422;6.794;2023-03-16T11:56:42;101309.16;;;11.32;100.00
8627;BME280;4351;51.422;6.794;2023-03-16T11:59:30;101300.91;;;11.01;100.00
8627;BME280;4351;51.422;6.794;2023-03-16T12:02:21;101290.09;;;11.01;100.00
8627;BME280;4351;51.422;6.794;2023-03-16T12:05:02;101288.63;;;10.96;100.00
8627;BME280;4351;51.422;6.794;2023-03-16T12:07:47;101282.06;;;10.84;100.00
8627;BME280;4351;51.422;6.794;2023-03-16T12:10:24;101279.16;;;11.04;100.00
8627;BME280;4351;51.422;6.794;2023-03-16T12:13:14;101273.19;;;10.98;100.00
8627;BME280;4351;51.422;6.794;2023-03-16T12:15:51;101271.03;;;10.71;100.00
8627;BME280;4351;51.422;6.794;2023-03-16T12:18:31;101255.31;;;10.61;100.00
8627;BME280;4351;51.422;6.794;2023-03-16T12:21:10;101256.72;;;10.68;100.00
8627;BME280;4351;51.422;6.794;2023-03-16T12:23:42;101260.41;;;10.67;100.00
8627;BME280;4351;51.422;6.794;2023-03-16T12:26:20;101252.06;;;10.72;100.00
8627;BME280;4351;51.422;6.794;2023-03-16T12:28:52;101255.94;;;10.49;100.00
8627;BME280;4351;51.422;6.794;2023-03-16T12:31:29;101243.91;;;10.56;100.00
8627;BME280;4351;51.422;6.794;2023-03-16T12:34:07;101241.59;;;10.30;100.00
8627;BME280;4351;51.422;6.794;2023-03-16T12:36:57;101239.13;;;10.43;100.00
8627;BME280;4351;51.422;6.794;2023-03-16T12:39:41;101239.50;;;10.35;100.00
8627;BME280;4351;51.422;6.794;2023-03-16T12:42:22;101231.72;;;10.47;100.00
8627;BME280;4351;51.422;6.794;2023-03-16T12:44:55;101226.44;;;10.63;100.00
8627;BME280;4351;51.422;6.794;2023-03-16T12:47:32;101227.00;;;10.70;100.00
8627;BME280;4351;51.422;6.794;2023-03-16T12:50:05;101212.16;;;10.61;100.00
8627;BME280;4351;51.422;6.794;2023-03-16T12:52:40;101205.41;;;10.86;100.00
8627;BME280;4351;51.422;6.794;2023-03-16T12:55:14;101210.41;;;10.60;100.00
8627;BME280;4351;51.422;6.794;2023-03-16T12:57:45;101204.31;;;10.56;100.00
8627;BME280;4351;51.422;6.794;2023-03-16T13:00:16;101188.03;;;10.58;100.00
8627;BME280;4351;51.422;6.794;2023-03-16T13:02:50;101189.00;;;10.57;100.00
8627;BME280;4351;51.422;6.794;2023-03-16T13:05:28;101178.69;;;10.81;100.00
8627;BME280;4351;51.422;6.794;2023-03-16T13:08:06;101177.44;;;10.71;100.00
8627;BME280;4351;51.422;6.794;2023-03-16T13:10:37;101179.69;;;11.13;100.00
8627;BME280;4351;51.422;6.794;2023-03-16T13:13:10;101183.88;;;11.19;100.00
8627;BME280;4351;51.422;6.794;2023-03-16T13:15:38;101163.31;;;11.32;100.00
8627;BME280;4351;51.422;6.794;2023-03-16T13:18:22;101156.75;;;11.36;100.00
8627;BME280;4351;51.422;6.794;2023-03-16T13:20:55;101159.19;;;11.57;100.00
8627;BME280;4351;51.422;6.794;2023-03-16T13:23:25;101157.75;;;11.35;100.00
8627;BME280;4351;51.422;6.794;2023-03-16T13:26:04;101152.25;;;11.53;100.00
8627;BME280;4351;51.422;6.794;2023-03-16T13:28:35;101141.84;;;11.61;100.00
8627;BME280;4351;51.422;6.794;2023-03-16T13:31:05;101151.09;;;11.57;100.00
8627;BME280;4351;51.422;6.794;2023-03-16T13:33:47;101150.56;;;11.67;100.00
8627;BME280;4351;51.422;6.794;2023-03-16T13:36:17;101142.22;;;11.86;100.00
8627;BME280;4351;51.422;6.794;2023-03-16T13:38:55;101134.53;;;11.47;100.00